sensor_id;sensor_type;location;lat;lon;timestamp;P1;durP1;ratioP1;P2;durP2;ratioP2
20138;SDS011;10230;51.502;10.800;2023-08-17T00:02:21;3.75;;;2.35;;
20138;SDS011;10230;51.502;10.800;2023-08-17T00:04:47;7.07;;;2.33;;
20138;SDS011;10230;51.502;10.800;2023-08-17T00:07:13;4.32;;;1.98;;
20138;SDS011;10230;51.502;10.800;2023-08-17T00:09:39;10.57;;;2.40;;
20138;SDS011;10230;51.502;10.800;2023-08-17T00:12:05;7.88;;;2.83;;
20138;SDS011;10230;51.502;10.800;2023-08-17T00:14:31;5.15;;;2.40;;
20138;SDS011;10230;51.502;10.800;2023-08-17T00:16:57;3.35;;;1.95;;
20138;SDS011;10230;51.502;10.800;2023-08-17T00:19:23;6.60;;;2.13;;
20138;SDS011;10230;51.502;10.800;2023-08-17T00:21:50;3.78;;;2.22;;
20138;SDS011;10230;51.502;10.800;2023-08-17T00:24:20;4.75;;;1.98;;
20138;SDS011;10230;51.502;10.800;2023-08-17T00:26:46;5.60;;;2.38;;
20138;SDS011;10230;51.502;10.800;2023-08-17T00:29:12;3.70;;;1.67;;
20138;SDS011;10230;51.502;10.800;2023-08-17T00:31:40;6.03;;;2.42;;
20138;SDS011;10230;51.502;10.800;2023-08-17T00:34:06;5.22;;;2.42;;
20138;SDS011;10230;51.502;10.800;2023-08-17T00:36:32;10.57;;;2.72;;
20138;SDS011;10230;51.502;10.800;2023-08-17T00:38:58;4.90;;;3.17;;
20138;SDS011;10230;51.502;10.800;2023-08-17T00:41:24;4.32;;;2.50;;
20138;SDS011;10230;51.502;10.800;2023-08-17T00:43:50;4.47;;;2.13;;
20138;SDS011;10230;51.502;10.800;2023-08-17T00:46:16;3.40;;;2.28;;
20138;SDS011;10230;51.502;10.800;2023-08-17T00:48:45;4.45;;;2.15;;
20138;SDS011;10230;51.502;10.800;2023-08-17T00:51:11;3.67;;;2.55;;
20138;SDS011;10230;51.502;10.800;2023-08-17T00:53:37;6.40;;;3.65;;
20138;SDS011;10230;51.502;10.800;2023-08-17T00:56:03;5.43;;;3.20;;
20138;SDS011;10230;51.502;10.800;2023-08-17T00:58:29;5.63;;;3.28;;
20138;SDS011;10230;51.502;10.800;2023-08-17T01:00:56;5.20;;;3.00;;
20138;SDS011;10230;51.502;10.800;2023-08-17T01:03:22;5.40;;;2.72;;
20138;SDS011;10230;51.502;10.800;2023-08-17T01:05:48;6.15;;;2.97;;
20138;SDS011;10230;51.502;10.800;2023-08-17T01:08:14;5.72;;;2.83;;
20138;SDS011;10230;51.502;10.800;2023-08-17T01:13:29;7.40;;;3.55;;
20138;SDS011;10230;51.502;10.800;2023-08-17T01:15:58;5.97;;;3.40;;
20138;SDS011;10230;51.502;10.800;2023-08-17T01:18:37;4.20;;;3.05;;
20138;SDS011;10230;51.502;10.800;2023-08-17T01:21:06;4.85;;;2.78;;
20138;SDS011;10230;51.502;10.800;2023-08-17T01:23:33;4.68;;;2.88;;
20138;SDS011;10230;51.502;10.800;2023-08-17T01:25:59;4.22;;;2.97;;
20138;SDS011;10230;51.502;10.800;2023-08-17T01:28:25;7.78;;;2.97;;
20138;SDS011;10230;51.502;10.800;2023-08-17T01:30:55;5.93;;;2.83;;
20138;SDS011;10230;51.502;10.800;2023-08-17T01:33:27;6.05;;;2.88;;
20138;SDS011;10230;51.502;10.800;2023-08-17T01:36:01;5.05;;;3.00;;
20138;SDS011;10230;51.502;10.800;2023-08-17T01:38:29;4.63;;;2.67;;
20138;SDS011;10230;51.502;10.800;2023-08-17T01:40:55;4.07;;;2.38;;
20138;SDS011;10230;51.502;10.800;2023-08-17T01:43:22;6.45;;;3.05;;
20138;SDS011;10230;51.502;10.800;2023-08-17T01:45:48;6.10;;;2.78;;
20138;SDS011;10230;51.502;10.800;2023-08-17T01:48:14;4.63;;;2.33;;
20138;SDS011;10230;51.502;10.800;2023-08-17T01:50:40;5.10;;;2.38;;
20138;SDS011;10230;51.502;10.800;2023-08-17T01:53:06;4.20;;;2.40;;
20138;SDS011;10230;51.502;10.800;2023-08-17T01:55:34;3.22;;;2.35;;
20138;SDS011;10230;51.502;10.800;2023-08-17T01:58:00;4.93;;;2.42;;
20138;SDS011;10230;51.502;10.800;2023-08-17T02:00:26;2.55;;;2.08;;
20138;SDS011;10230;51.502;10.800;2023-08-17T02:02:53;5.20;;;2.42;;
20138;SDS011;10230;51.502;10.800;2023-08-17T02:05:19;2.92;;;2.20;;
20138;SDS011;10230;51.502;10.800;2023-08-17T02:07:45;4.05;;;2.00;;
20138;SDS011;10230;51.502;10.800;2023-08-17T02:10:11;4.13;;;2.30;;
20138;SDS011;10230;51.502;10.800;2023-08-17T02:12:37;5.10;;;2.90;;
20138;SDS011;10230;51.502;10.800;2023-08-17T02:15:04;8.27;;;4.85;;
20138;SDS011;10230;51.502;10.800;2023-08-17T02:17:30;6.32;;;3.58;;
20138;SDS011;10230;51.502;10.800;2023-08-17T02:19:56;5.75;;;3.75;;
20138;SDS011;10230;51.502;10.800;2023-08-17T02:22:22;5.55;;;4.38;;
20138;SDS011;10230;51.502;10.800;2023-08-17T02:24:48;6.25;;;4.10;;
20138;SDS011;10230;51.502;10.800;2023-08-17T02:27:14;8.63;;;4.55;;
20138;SDS011;10230;51.502;10.800;2023-08-17T02:29:40;9.77;;;5.85;;
20138;SDS011;10230;51.502;10.800;2023-08-17T02:32:06;9.98;;;4.68;;
20138;SDS011;10230;51.502;10.800;2023-08-17T02:34:32;7.78;;;4.35;;
20138;SDS011;10230;51.502;10.800;2023-08-17T02:36:58;6.55;;;3.95;;
20138;SDS011;10230;51.502;10.800;2023-08-17T02:39:24;9.82;;;4.50;;
20138;SDS011;10230;51.502;10.800;2023-08-17T02:41:50;8.55;;;4.28;;
20138;SDS011;10230;51.502;10.800;2023-08-17T02:44:16;7.65;;;4.45;;
20138;SDS011;10230;51.502;10.800;2023-08-17T02:46:42;7.03;;;4.72;;
20138;SDS011;10230;51.502;10.800;2023-08-17T02:49:08;11.27;;;5.35;;
20138;SDS011;10230;51.502;10.800;2023-08-17T02:51:34;12.07;;;4.85;;
20138;SDS011;10230;51.502;10.800;2023-08-17T02:54:00;9.35;;;5.55;;
20138;SDS011;10230;51.502;10.800;2023-08-17T02:56:27;6.82;;;5.45;;
20138;SDS011;10230;51.502;10.800;2023-08-17T02:58:53;7.15;;;5.57;;
20138;SDS011;10230;51.502;10.800;2023-08-17T03:01:19;10.95;;;5.07;;
20138;SDS011;10230;51.502;10.800;2023-08-17T03:03:45;6.57;;;4.13;;
20138;SDS011;10230;51.502;10.800;2023-08-17T03:06:11;6.22;;;3.50;;
20138;SDS011;10230;51.502;10.800;2023-08-17T03:08:37;4.72;;;3.10;;
20138;SDS011;10230;51.502;10.800;2023-08-17T03:11:03;5.30;;;2.65;;
20138;SDS011;10230;51.502;10.800;2023-08-17T03:13:32;3.80;;;2.40;;
20138;SDS011;10230;51.502;10.800;2023-08-17T03:15:58;4.78;;;2.70;;
20138;SDS011;10230;51.502;10.800;2023-08-17T03:18:24;5.43;;;3.28;;
20138;SDS011;10230;51.502;10.800;2023-08-17T03:20:50;4.32;;;3.55;;
20138;SDS011;10230;51.502;10.800;2023-08-17T03:23:16;6.75;;;3.78;;
20138;SDS011;10230;51.502;10.800;2023-08-17T03:25:42;5.63;;;3.92;;
20138;SDS011;10230;51.502;10.800;2023-08-17T03:28:08;5.63;;;4.20;;
20138;SDS011;10230;51.502;10.800;2023-08-17T03:30:34;7.28;;;4.50;;
20138;SDS011;10230;51.502;10.800;2023-08-17T03:33:00;6.97;;;4.15;;
20138;SDS011;10230;51.502;10.800;2023-08-17T03:35:26;7.30;;;4.50;;
20138;SDS011;10230;51.502;10.800;2023-08-17T03:37:52;6.50;;;4.47;;
20138;SDS011;10230;51.502;10.800;2023-08-17T03:40:18;7.55;;;5.15;;
20138;SDS011;10230;51.502;10.800;2023-08-17T03:42:44;6.95;;;4.78;;
20138;SDS011;10230;51.502;10.800;2023-08-17T03:45:10;8.68;;;5.95;;
20138;SDS011;10230;51.502;10.800;2023-08-17T03:47:36;9.23;;;6.00;;
20138;SDS011;10230;51.502;10.800;2023-08-17T03:50:02;10.90;;;6.15;;
20138;SDS011;10230;51.502;10.800;2023-08-17T03:52:29;9.40;;;6.28;;
20138;SDS011;10230;51.502;10.800;2023-08-17T03:54:55;9.73;;;6.53;;
20138;SDS011;10230;51.502;10.800;2023-08-17T03:57:21;10.77;;;6.45;;
20138;SDS011;10230;51.502;10.800;2023-08-17T03:59:46;12.05;;;7.47;;
20138;SDS011;10230;51.502;10.800;2023-08-17T04:02:13;10.18;;;6.95;;
20138;SDS011;10230;51.502;10.800;2023-08-17T04:04:39;23.55;;;6.68;;
20138;SDS011;10230;51.502;10.800;2023-08-17T04:07:04;18.65;;;6.75;;
20138;SDS011;10230;51.502;10.800;2023-08-17T04:09:32;11.68;;;6.75;;
20138;SDS011;10230;51.502;10.800;2023-08-17T04:11:58;8.05;;;5.38;;
20138;SDS011;10230;51.502;10.800;2023-08-17T04:14:24;8.20;;;5.00;;
20138;SDS011;10230;51.502;10.800;2023-08-17T04:16:51;9.25;;;5.00;;
20138;SDS011;10230;51.502;10.800;2023-08-17T04:19:17;7.05;;;4.03;;
20138;SDS011;10230;51.502;10.800;2023-08-17T04:21:43;7.88;;;4.18;;
20138;SDS011;10230;51.502;10.800;2023-08-17T04:24:09;8.05;;;4.20;;
20138;SDS011;10230;51.502;10.800;2023-08-17T04:26:35;7.07;;;4.35;;
20138;SDS011;10230;51.502;10.800;2023-08-17T04:29:01;6.95;;;4.30;;
20138;SDS011;10230;51.502;10.800;2023-08-17T04:31:27;6.82;;;4.18;;
20138;SDS011;10230;51.502;10.800;2023-08-17T04:33:53;8.02;;;5.20;;
20138;SDS011;10230;51.502;10.800;2023-08-17T04:36:19;8.20;;;4.65;;
20138;SDS011;10230;51.502;10.800;2023-08-17T04:38:45;9.80;;;5.15;;
20138;SDS011;10230;51.502;10.800;2023-08-17T04:41:11;10.38;;;5.65;;
20138;SDS011;10230;51.502;10.800;2023-08-17T04:43:37;10.27;;;6.00;;
20138;SDS011;10230;51.502;10.800;2023-08-17T04:46:03;10.95;;;6.28;;
20138;SDS011;10230;51.502;10.800;2023-08-17T04:48:29;8.73;;;6.13;;
20138;SDS011;10230;51.502;10.800;2023-08-17T04:50:55;9.68;;;6.18;;
20138;SDS011;10230;51.502;10.800;2023-08-17T04:53:21;13.52;;;7.25;;
20138;SDS011;10230;51.502;10.800;2023-08-17T04:55:47;9.07;;;6.63;;
20138;SDS011;10230;51.502;10.800;2023-08-17T04:58:13;10.38;;;6.07;;
20138;SDS011;10230;51.502;10.800;2023-08-17T05:00:39;9.52;;;6.72;;
20138;SDS011;10230;51.502;10.800;2023-08-17T05:03:06;9.77;;;5.95;;
20138;SDS011;10230;51.502;10.800;2023-08-17T05:05:32;11.02;;;6.47;;
20138;SDS011;10230;51.502;10.800;2023-08-17T05:08:00;8.90;;;6.10;;
20138;SDS011;10230;51.502;10.800;2023-08-17T05:10:26;10.75;;;7.07;;
20138;SDS011;10230;51.502;10.800;2023-08-17T05:12:52;10.88;;;7.20;;
20138;SDS011;10230;51.502;10.800;2023-08-17T05:15:18;9.23;;;6.85;;
20138;SDS011;10230;51.502;10.800;2023-08-17T05:17:44;7.95;;;6.53;;
20138;SDS011;10230;51.502;10.800;2023-08-17T05:20:10;11.18;;;6.65;;
20138;SDS011;10230;51.502;10.800;2023-08-17T05:22:37;8.98;;;7.15;;
20138;SDS011;10230;51.502;10.800;2023-08-17T05:25:04;8.38;;;6.65;;
20138;SDS011;10230;51.502;10.800;2023-08-17T05:27:30;9.20;;;5.85;;
20138;SDS011;10230;51.502;10.800;2023-08-17T05:29:56;8.45;;;5.63;;
20138;SDS011;10230;51.502;10.800;2023-08-17T05:32:22;7.20;;;6.00;;
20138;SDS011;10230;51.502;10.800;2023-08-17T05:34:48;8.90;;;6.25;;
20138;SDS011;10230;51.502;10.800;2023-08-17T05:37:14;7.20;;;5.47;;
20138;SDS011;10230;51.502;10.800;2023-08-17T05:39:41;6.40;;;5.80;;
20138;SDS011;10230;51.502;10.800;2023-08-17T05:42:07;6.95;;;6.22;;
20138;SDS011;10230;51.502;10.800;2023-08-17T05:44:34;6.07;;;5.28;;
20138;SDS011;10230;51.502;10.800;2023-08-17T05:47:00;7.82;;;5.53;;
20138;SDS011;10230;51.502;10.800;2023-08-17T05:49:26;6.63;;;5.53;;
20138;SDS011;10230;51.502;10.800;2023-08-17T05:51:53;8.68;;;5.90;;
20138;SDS011;10230;51.502;10.800;2023-08-17T05:54:19;7.07;;;5.97;;
20138;SDS011;10230;51.502;10.800;2023-08-17T05:56:45;7.05;;;5.50;;
20138;SDS011;10230;51.502;10.800;2023-08-17T05:59:12;5.85;;;5.10;;
20138;SDS011;10230;51.502;10.800;2023-08-17T06:01:38;7.18;;;6.47;;
20138;SDS011;10230;51.502;10.800;2023-08-17T06:04:04;6.07;;;5.47;;
20138;SDS011;10230;51.502;10.800;2023-08-17T06:06:31;7.30;;;6.00;;
20138;SDS011;10230;51.502;10.800;2023-08-17T06:08:57;5.82;;;5.15;;
20138;SDS011;10230;51.502;10.800;2023-08-17T06:11:23;7.47;;;6.03;;
20138;SDS011;10230;51.502;10.800;2023-08-17T06:13:49;5.70;;;5.20;;
20138;SDS011;10230;51.502;10.800;2023-08-17T06:16:15;5.30;;;4.80;;
20138;SDS011;10230;51.502;10.800;2023-08-17T06:18:41;5.38;;;4.90;;
20138;SDS011;10230;51.502;10.800;2023-08-17T06:21:08;5.55;;;4.13;;
20138;SDS011;10230;51.502;10.800;2023-08-17T06:23:34;6.82;;;4.63;;
20138;SDS011;10230;51.502;10.800;2023-08-17T06:26:00;4.88;;;4.38;;
20138;SDS011;10230;51.502;10.800;2023-08-17T06:28:26;5.57;;;4.20;;
20138;SDS011;10230;51.502;10.800;2023-08-17T06:30:56;4.93;;;3.80;;
20138;SDS011;10230;51.502;10.800;2023-08-17T06:33:22;3.95;;;3.17;;
20138;SDS011;10230;51.502;10.800;2023-08-17T06:35:49;3.85;;;3.55;;
20138;SDS011;10230;51.502;10.800;2023-08-17T06:38:15;3.70;;;3.00;;
20138;SDS011;10230;51.502;10.800;2023-08-17T06:40:41;4.20;;;3.80;;
20138;SDS011;10230;51.502;10.800;2023-08-17T06:43:07;4.00;;;3.00;;
20138;SDS011;10230;51.502;10.800;2023-08-17T06:45:33;2.78;;;2.58;;
20138;SDS011;10230;51.502;10.800;2023-08-17T06:47:59;2.85;;;2.47;;
20138;SDS011;10230;51.502;10.800;2023-08-17T06:50:25;2.97;;;2.67;;
20138;SDS011;10230;51.502;10.800;2023-08-17T06:52:53;2.88;;;2.67;;
20138;SDS011;10230;51.502;10.800;2023-08-17T06:55:19;3.38;;;3.08;;
20138;SDS011;10230;51.502;10.800;2023-08-17T06:57:47;3.95;;;3.15;;
20138;SDS011;10230;51.502;10.800;2023-08-17T07:00:16;5.28;;;3.60;;
20138;SDS011;10230;51.502;10.800;2023-08-17T07:02:45;3.60;;;2.97;;
20138;SDS011;10230;51.502;10.800;2023-08-17T07:05:11;4.88;;;2.63;;
20138;SDS011;10230;51.502;10.800;2023-08-17T07:07:38;3.60;;;2.88;;
20138;SDS011;10230;51.502;10.800;2023-08-17T07:10:04;3.00;;;2.70;;
20138;SDS011;10230;51.502;10.800;2023-08-17T07:12:32;3.88;;;2.60;;
20138;SDS011;10230;51.502;10.800;2023-08-17T07:14:58;3.70;;;2.65;;
20138;SDS011;10230;51.502;10.800;2023-08-17T07:17:24;4.10;;;3.70;;
20138;SDS011;10230;51.502;10.800;2023-08-17T07:19:50;4.03;;;3.00;;
20138;SDS011;10230;51.502;10.800;2023-08-17T07:22:16;2.50;;;2.03;;
20138;SDS011;10230;51.502;10.800;2023-08-17T07:24:42;4.15;;;2.55;;
20138;SDS011;10230;51.502;10.800;2023-08-17T07:27:08;3.45;;;3.17;;
20138;SDS011;10230;51.502;10.800;2023-08-17T07:29:34;3.28;;;2.15;;
20138;SDS011;10230;51.502;10.800;2023-08-17T07:32:01;2.70;;;2.50;;
20138;SDS011;10230;51.502;10.800;2023-08-17T07:34:29;2.75;;;2.35;;
20138;SDS011;10230;51.502;10.800;2023-08-17T07:36:56;2.20;;;2.00;;
20138;SDS011;10230;51.502;10.800;2023-08-17T07:39:22;3.78;;;1.90;;
20138;SDS011;10230;51.502;10.800;2023-08-17T07:41:48;5.18;;;2.15;;
20138;SDS011;10230;51.502;10.800;2023-08-17T07:44:14;2.67;;;1.80;;
20138;SDS011;10230;51.502;10.800;2023-08-17T07:46:40;2.03;;;1.48;;
20138;SDS011;10230;51.502;10.800;2023-08-17T07:49:06;3.92;;;1.50;;
20138;SDS011;10230;51.502;10.800;2023-08-17T07:51:32;2.08;;;1.55;;
20138;SDS011;10230;51.502;10.800;2023-08-17T07:53:59;1.20;;;1.10;;
20138;SDS011;10230;51.502;10.800;2023-08-17T07:56:25;2.17;;;1.63;;
20138;SDS011;10230;51.502;10.800;2023-08-17T07:58:53;3.05;;;1.83;;
20138;SDS011;10230;51.502;10.800;2023-08-17T08:01:19;3.00;;;1.60;;
20138;SDS011;10230;51.502;10.800;2023-08-17T08:03:45;1.27;;;1.10;;
20138;SDS011;10230;51.502;10.800;2023-08-17T08:06:11;1.38;;;1.17;;
20138;SDS011;10230;51.502;10.800;2023-08-17T08:08:37;1.42;;;1.33;;
20138;SDS011;10230;51.502;10.800;2023-08-17T08:11:03;2.08;;;1.30;;
20138;SDS011;10230;51.502;10.800;2023-08-17T08:13:30;4.45;;;1.35;;
20138;SDS011;10230;51.502;10.800;2023-08-17T08:15:57;1.40;;;1.15;;
20138;SDS011;10230;51.502;10.800;2023-08-17T08:18:23;2.88;;;1.20;;
20138;SDS011;10230;51.502;10.800;2023-08-17T08:20:49;1.63;;;1.23;;
20138;SDS011;10230;51.502;10.800;2023-08-17T08:23:15;2.78;;;1.40;;
20138;SDS011;10230;51.502;10.800;2023-08-17T08:25:42;1.50;;;1.40;;
20138;SDS011;10230;51.502;10.800;2023-08-17T08:28:08;1.85;;;1.17;;
20138;SDS011;10230;51.502;10.800;2023-08-17T08:30:34;2.83;;;1.20;;
20138;SDS011;10230;51.502;10.800;2023-08-17T08:33:00;1.45;;;1.33;;
20138;SDS011;10230;51.502;10.800;2023-08-17T08:35:26;1.88;;;1.20;;
20138;SDS011;10230;51.502;10.800;2023-08-17T08:37:53;4.13;;;2.70;;
20138;SDS011;10230;51.502;10.800;2023-08-17T08:40:20;1.20;;;1.10;;
20138;SDS011;10230;51.502;10.800;2023-08-17T08:42:52;7.45;;;4.47;;
20138;SDS011;10230;51.502;10.800;2023-08-17T08:45:18;1.02;;;0.82;;
20138;SDS011;10230;51.502;10.800;2023-08-17T08:47:44;2.25;;;1.45;;
20138;SDS011;10230;51.502;10.800;2023-08-17T08:50:11;1.63;;;1.10;;
20138;SDS011;10230;51.502;10.800;2023-08-17T08:52:42;3.60;;;1.60;;
20138;SDS011;10230;51.502;10.800;2023-08-17T08:55:17;1.67;;;1.42;;
20138;SDS011;10230;51.502;10.800;2023-08-17T08:57:44;1.35;;;1.00;;
20138;SDS011;10230;51.502;10.800;2023-08-17T09:00:12;2.47;;;0.90;;
20138;SDS011;10230;51.502;10.800;2023-08-17T09:02:38;2.45;;;1.27;;
20138;SDS011;10230;51.502;10.800;2023-08-17T09:05:09;1.30;;;1.20;;
20138;SDS011;10230;51.502;10.800;2023-08-17T09:07:35;2.03;;;1.23;;
20138;SDS011;10230;51.502;10.800;2023-08-17T09:10:03;3.28;;;1.45;;
20138;SDS011;10230;51.502;10.800;2023-08-17T09:12:29;4.70;;;1.65;;
20138;SDS011;10230;51.502;10.800;2023-08-17T09:14:56;2.17;;;1.98;;
20138;SDS011;10230;51.502;10.800;2023-08-17T09:17:28;1.20;;;1.10;;
20138;SDS011;10230;51.502;10.800;2023-08-17T09:19:54;2.08;;;1.23;;
20138;SDS011;10230;51.502;10.800;2023-08-17T09:22:24;1.20;;;0.90;;
20138;SDS011;10230;51.502;10.800;2023-08-17T09:24:50;1.33;;;1.15;;
20138;SDS011;10230;51.502;10.800;2023-08-17T09:27:16;1.52;;;1.15;;
20138;SDS011;10230;51.502;10.800;2023-08-17T09:29:43;0.93;;;0.90;;
20138;SDS011;10230;51.502;10.800;2023-08-17T09:32:10;0.93;;;0.93;;
20138;SDS011;10230;51.502;10.800;2023-08-17T09:34:36;1.05;;;0.95;;
20138;SDS011;10230;51.502;10.800;2023-08-17T09:37:06;1.35;;;1.02;;
20138;SDS011;10230;51.502;10.800;2023-08-17T09:39:32;0.93;;;0.90;;
20138;SDS011;10230;51.502;10.800;2023-08-17T09:41:59;1.42;;;1.20;;
20138;SDS011;10230;51.502;10.800;2023-08-17T09:44:25;1.00;;;1.00;;
20138;SDS011;10230;51.502;10.800;2023-08-17T09:46:51;1.20;;;1.10;;
20138;SDS011;10230;51.502;10.800;2023-08-17T09:49:17;1.20;;;1.10;;
20138;SDS011;10230;51.502;10.800;2023-08-17T09:51:44;2.17;;;1.75;;
20138;SDS011;10230;51.502;10.800;2023-08-17T09:54:22;1.30;;;1.20;;
20138;SDS011;10230;51.502;10.800;2023-08-17T09:56:52;2.45;;;2.00;;
20138;SDS011;10230;51.502;10.800;2023-08-17T09:59:18;29.45;;;5.13;;
20138;SDS011;10230;51.502;10.800;2023-08-17T10:01:48;2.55;;;2.33;;
20138;SDS011;10230;51.502;10.800;2023-08-17T10:04:24;2.42;;;2.25;;
20138;SDS011;10230;51.502;10.800;2023-08-17T10:07:11;3.97;;;2.30;;
20138;SDS011;10230;51.502;10.800;2023-08-17T10:09:36;2.67;;;2.20;;
20138;SDS011;10230;51.502;10.800;2023-08-17T10:12:06;2.78;;;2.55;;
20138;SDS011;10230;51.502;10.800;2023-08-17T10:14:34;2.58;;;2.38;;
20138;SDS011;10230;51.502;10.800;2023-08-17T10:17:01;2.50;;;2.30;;
20138;SDS011;10230;51.502;10.800;2023-08-17T10:19:34;2.90;;;2.70;;
20138;SDS011;10230;51.502;10.800;2023-08-17T10:22:12;2.22;;;2.03;;
20138;SDS011;10230;51.502;10.800;2023-08-17T10:24:40;2.67;;;2.47;;
20138;SDS011;10230;51.502;10.800;2023-08-17T10:27:08;2.08;;;1.98;;
20138;SDS011;10230;51.502;10.800;2023-08-17T10:29:35;2.00;;;1.90;;
20138;SDS011;10230;51.502;10.800;2023-08-17T10:32:02;2.20;;;2.10;;
20138;SDS011;10230;51.502;10.800;2023-08-17T10:34:28;2.63;;;1.83;;
20138;SDS011;10230;51.502;10.800;2023-08-17T10:36:54;2.90;;;2.67;;
20138;SDS011;10230;51.502;10.800;2023-08-17T10:39:23;2.10;;;1.90;;
20138;SDS011;10230;51.502;10.800;2023-08-17T10:41:51;2.50;;;2.30;;
20138;SDS011;10230;51.502;10.800;2023-08-17T10:44:17;2.67;;;2.47;;
20138;SDS011;10230;51.502;10.800;2023-08-17T10:46:44;2.45;;;2.22;;
20138;SDS011;10230;51.502;10.800;2023-08-17T10:49:26;3.10;;;2.50;;
20138;SDS011;10230;51.502;10.800;2023-08-17T10:52:02;3.20;;;2.55;;
20138;SDS011;10230;51.502;10.800;2023-08-17T10:54:41;3.75;;;2.70;;
20138;SDS011;10230;51.502;10.800;2023-08-17T11:00:05;2.88;;;2.47;;
20138;SDS011;10230;51.502;10.800;2023-08-17T11:02:38;3.15;;;2.85;;
20138;SDS011;10230;51.502;10.800;2023-08-17T11:05:04;2.80;;;2.42;;
20138;SDS011;10230;51.502;10.800;2023-08-17T11:07:43;2.67;;;2.42;;
20138;SDS011;10230;51.502;10.800;2023-08-17T11:10:26;2.78;;;2.58;;
20138;SDS011;10230;51.502;10.800;2023-08-17T11:12:54;4.13;;;2.78;;
20138;SDS011;10230;51.502;10.800;2023-08-17T11:15:24;4.78;;;2.97;;
20138;SDS011;10230;51.502;10.800;2023-08-17T11:17:51;3.72;;;2.97;;
20138;SDS011;10230;51.502;10.800;2023-08-17T11:20:17;3.00;;;2.78;;
20138;SDS011;10230;51.502;10.800;2023-08-17T11:22:44;2.70;;;2.45;;
20138;SDS011;10230;51.502;10.800;2023-08-17T11:25:10;2.53;;;2.33;;
20138;SDS011;10230;51.502;10.800;2023-08-17T11:27:36;2.90;;;2.60;;
20138;SDS011;10230;51.502;10.800;2023-08-17T11:30:02;2.78;;;2.58;;
20138;SDS011;10230;51.502;10.800;2023-08-17T11:32:29;4.00;;;3.40;;
20138;SDS011;10230;51.502;10.800;2023-08-17T11:34:55;3.42;;;2.60;;
20138;SDS011;10230;51.502;10.800;2023-08-17T11:37:21;3.28;;;2.95;;
20138;SDS011;10230;51.502;10.800;2023-08-17T11:39:48;4.50;;;4.10;;
20138;SDS011;10230;51.502;10.800;2023-08-17T11:42:14;3.22;;;2.92;;
20138;SDS011;10230;51.502;10.800;2023-08-17T11:44:40;4.30;;;3.70;;
20138;SDS011;10230;51.502;10.800;2023-08-17T11:47:06;3.38;;;3.17;;
20138;SDS011;10230;51.502;10.800;2023-08-17T11:49:32;3.25;;;3.05;;
20138;SDS011;10230;51.502;10.800;2023-08-17T11:51:59;4.38;;;3.85;;
20138;SDS011;10230;51.502;10.800;2023-08-17T11:54:25;4.95;;;3.50;;
20138;SDS011;10230;51.502;10.800;2023-08-17T11:56:51;4.03;;;3.63;;
20138;SDS011;10230;51.502;10.800;2023-08-17T11:59:17;3.17;;;2.88;;
20138;SDS011;10230;51.502;10.800;2023-08-17T12:01:45;3.88;;;3.58;;
20138;SDS011;10230;51.502;10.800;2023-08-17T12:04:11;3.40;;;3.08;;
20138;SDS011;10230;51.502;10.800;2023-08-17T12:06:42;3.65;;;3.35;;
20138;SDS011;10230;51.502;10.800;2023-08-17T12:09:12;4.07;;;3.63;;
20138;SDS011;10230;51.502;10.800;2023-08-17T12:11:39;3.70;;;3.40;;
20138;SDS011;10230;51.502;10.800;2023-08-17T12:14:09;3.70;;;3.40;;
20138;SDS011;10230;51.502;10.800;2023-08-17T12:16:44;2.90;;;2.70;;
20138;SDS011;10230;51.502;10.800;2023-08-17T12:19:11;3.30;;;3.00;;
20138;SDS011;10230;51.502;10.800;2023-08-17T12:21:37;3.22;;;3.03;;
20138;SDS011;10230;51.502;10.800;2023-08-17T12:24:06;3.80;;;3.42;;
20138;SDS011;10230;51.502;10.800;2023-08-17T12:26:32;4.25;;;3.85;;
20138;SDS011;10230;51.502;10.800;2023-08-17T12:28:59;4.95;;;3.42;;
20138;SDS011;10230;51.502;10.800;2023-08-17T12:31:25;3.78;;;3.47;;
20138;SDS011;10230;51.502;10.800;2023-08-17T12:33:53;3.92;;;3.63;;
20138;SDS011;10230;51.502;10.800;2023-08-17T12:36:19;3.65;;;3.35;;
20138;SDS011;10230;51.502;10.800;2023-08-17T12:38:46;4.03;;;3.70;;
20138;SDS011;10230;51.502;10.800;2023-08-17T12:41:13;3.95;;;3.63;;
20138;SDS011;10230;51.502;10.800;2023-08-17T12:43:39;4.15;;;3.75;;
20138;SDS011;10230;51.502;10.800;2023-08-17T12:46:05;4.13;;;3.58;;
20138;SDS011;10230;51.502;10.800;2023-08-17T12:48:31;6.15;;;4.57;;
20138;SDS011;10230;51.502;10.800;2023-08-17T12:50:57;4.20;;;3.80;;
20138;SDS011;10230;51.502;10.800;2023-08-17T12:53:23;4.18;;;3.78;;
20138;SDS011;10230;51.502;10.800;2023-08-17T12:55:49;3.78;;;3.47;;
20138;SDS011;10230;51.502;10.800;2023-08-17T12:58:15;4.18;;;3.78;;
20138;SDS011;10230;51.502;10.800;2023-08-17T13:00:41;4.28;;;3.85;;
20138;SDS011;10230;51.502;10.800;2023-08-17T13:03:07;3.80;;;3.50;;
20138;SDS011;10230;51.502;10.800;2023-08-17T13:05:33;3.90;;;3.53;;
20138;SDS011;10230;51.502;10.800;2023-08-17T13:07:59;5.75;;;5.22;;
20138;SDS011;10230;51.502;10.800;2023-08-17T13:10:25;4.85;;;3.83;;
20138;SDS011;10230;51.502;10.800;2023-08-17T13:12:51;3.90;;;3.50;;
20138;SDS011;10230;51.502;10.800;2023-08-17T13:15:24;3.78;;;3.47;;
20138;SDS011;10230;51.502;10.800;2023-08-17T13:17:50;4.68;;;4.28;;
20138;SDS011;10230;51.502;10.800;2023-08-17T13:20:16;4.30;;;4.00;;
20138;SDS011;10230;51.502;10.800;2023-08-17T13:22:42;3.85;;;3.55;;
20138;SDS011;10230;51.502;10.800;2023-08-17T13:25:08;3.38;;;3.13;;
20138;SDS011;10230;51.502;10.800;2023-08-17T13:27:34;4.05;;;3.75;;
20138;SDS011;10230;51.502;10.800;2023-08-17T13:30:00;4.50;;;4.10;;
20138;SDS011;10230;51.502;10.800;2023-08-17T13:32:26;3.92;;;3.63;;
20138;SDS011;10230;51.502;10.800;2023-08-17T13:34:53;4.25;;;3.85;;
20138;SDS011;10230;51.502;10.800;2023-08-17T13:37:19;3.72;;;3.42;;
20138;SDS011;10230;51.502;10.800;2023-08-17T13:39:45;3.90;;;2.97;;
20138;SDS011;10230;51.502;10.800;2023-08-17T13:42:12;3.47;;;3.17;;
20138;SDS011;10230;51.502;10.800;2023-08-17T13:44:38;3.72;;;3.40;;
20138;SDS011;10230;51.502;10.800;2023-08-17T13:47:04;4.03;;;3.40;;
20138;SDS011;10230;51.502;10.800;2023-08-17T13:49:30;2.47;;;2.28;;
20138;SDS011;10230;51.502;10.800;2023-08-17T13:51:56;4.05;;;3.50;;
20138;SDS011;10230;51.502;10.800;2023-08-17T13:54:23;4.05;;;3.75;;
20138;SDS011;10230;51.502;10.800;2023-08-17T13:56:49;6.82;;;5.93;;
20138;SDS011;10230;51.502;10.800;2023-08-17T13:59:15;4.43;;;3.97;;
20138;SDS011;10230;51.502;10.800;2023-08-17T14:01:41;3.85;;;3.53;;
20138;SDS011;10230;51.502;10.800;2023-08-17T14:04:07;3.90;;;3.60;;
20138;SDS011;10230;51.502;10.800;2023-08-17T14:06:37;3.35;;;3.05;;
20138;SDS011;10230;51.502;10.800;2023-08-17T14:09:03;3.20;;;3.00;;
20138;SDS011;10230;51.502;10.800;2023-08-17T14:11:30;3.13;;;2.90;;
20138;SDS011;10230;51.502;10.800;2023-08-17T14:13:56;4.30;;;3.10;;
20138;SDS011;10230;51.502;10.800;2023-08-17T14:16:22;4.53;;;3.10;;
20138;SDS011;10230;51.502;10.800;2023-08-17T14:18:48;2.95;;;2.75;;
20138;SDS011;10230;51.502;10.800;2023-08-17T14:21:15;3.45;;;3.17;;
20138;SDS011;10230;51.502;10.800;2023-08-17T14:23:41;3.17;;;2.92;;
20138;SDS011;10230;51.502;10.800;2023-08-17T14:26:07;3.47;;;3.17;;
20138;SDS011;10230;51.502;10.800;2023-08-17T14:28:33;3.95;;;3.20;;
20138;SDS011;10230;51.502;10.800;2023-08-17T14:30:59;4.07;;;3.08;;
20138;SDS011;10230;51.502;10.800;2023-08-17T14:33:25;3.10;;;2.85;;
20138;SDS011;10230;51.502;10.800;2023-08-17T14:35:51;3.38;;;2.85;;
20138;SDS011;10230;51.502;10.800;2023-08-17T14:38:17;3.85;;;3.35;;